Time;durP1;ratioP1;P1;durP2;ratioP2;P2;SDS_P1;SDS_P2;PMS_P1;PMS_P2;Temp;Humidity;BMP_temperature;BMP_pressure;BME280_temperature;BME280_humidity;BME280_pressure;Samples;Min_cycle;Max_cycle;Signal;HPM_P1;HPM_P2
2022/04/09 00:00:48;;;;;;;13.93;2.28;;;4.60;99.90;;;;;;4959384;28;79845;-74
2022/04/09 00:03:14;;;;;;;15.13;2.42;;;4.50;99.90;;;;;;5005430;28;20056;-74
2022/04/09 00:05:40;;;;;;;12.60;2.40;;;4.50;99.90;;;;;;4932549;28;276368;-74
2022/04/09 00:08:07;;;;;;;10.68;2.00;;;4.40;99.90;;;;;;5000104;28;20064;-74
2022/04/09 00:10:33;;;;;;;14.10;2.20;;;4.40;99.90;;;;;;4962855;28;158753;-75
2022/04/09 00:12:59;;;;;;;13.02;2.10;;;4.30;99.90;;;;;;5000616;28;20576;-75
2022/04/09 00:15:25;;;;;;;12.77;2.15;;;4.20;99.90;;;;;;5003681;28;156432;-73
2022/04/09 00:17:51;;;;;;;14.70;1.83;;;4.20;99.90;;;;;;4972622;28;20041;-74
2022/04/09 00:20:19;;;;;;;11.05;1.80;;;4.10;99.90;;;;;;4999326;28;70367;-73
2022/04/09 00:22:45;;;;;;;13.15;1.90;;;4.10;99.90;;;;;;4979451;28;20041;-74
2022/04/09 00:25:13;;;;;;;11.50;1.98;;;4.00;99.90;;;;;;5006541;28;191644;-74
2022/04/09 00:27:40;;;;;;;10.57;1.95;;;4.00;99.90;;;;;;4988427;28;20045;-74
2022/04/09 00:30:08;;;;;;;16.08;2.35;;;4.00;99.90;;;;;;4999472;28;209193;-74
2022/04/09 00:32:35;;;;;;;10.85;1.83;;;4.00;99.90;;;;;;4970150;28;20042;-74
2022/04/09 00:35:03;;;;;;;13.35;1.88;;;4.00;99.90;;;;;;5001734;28;38875;-74
2022/04/09 00:37:29;;;;;;;16.00;1.80;;;4.00;99.90;;;;;;4966282;28;20038;-74
2022/04/09 00:39:56;;;;;;;14.52;2.30;;;4.00;99.90;;;;;;5001720;28;182372;-75
2022/04/09 00:42:22;;;;;;;8.48;1.58;;;4.10;99.90;;;;;;4970913;28;20049;-75
2022/04/09 00:44:50;;;;;;;12.82;1.92;;;4.20;99.90;;;;;;5001415;28;188081;-76
2022/04/09 00:47:16;;;;;;;13.02;2.00;;;4.20;99.90;;;;;;4990143;28;20492;-76
2022/04/09 00:49:42;;;;;;;10.27;1.60;;;4.10;99.90;;;;;;5003932;28;238377;-76
2022/04/09 00:52:09;;;;;;;12.63;2.28;;;4.10;99.90;;;;;;4981563;28;20049;-76
2022/04/09 00:54:42;;;;;;;8.93;1.52;;;4.10;99.90;;;;;;4988957;28;92988;-76
2022/04/09 00:57:09;;;;;;;8.85;1.50;;;4.10;99.90;;;;;;4980500;28;20065;-76
2022/04/09 00:59:36;;;;;;;9.52;1.60;;;4.00;99.90;;;;;;4999217;28;20538;-76
2022/04/09 01:02:03;;;;;;;8.82;1.40;;;4.00;99.90;;;;;;4975372;28;20078;-76
2022/04/09 01:04:32;;;;;;;11.77;1.60;;;4.00;99.90;;;;;;4995754;28;120064;-76
2022/04/09 01:07:00;;;;;;;8.90;1.52;;;4.00;99.90;;;;;;4973635;28;20550;-76
2022/04/09 01:09:26;;;;;;;12.55;1.60;;;3.90;99.90;;;;;;5008627;28;25337;-76
2022/04/09 01:11:54;;;;;;;9.15;1.60;;;3.90;99.90;;;;;;4952337;28;20038;-75
2022/04/09 01:14:20;;;;;;;10.93;1.30;;;3.80;99.90;;;;;;5001809;28;118890;-75
2022/04/09 01:16:46;;;;;;;10.90;1.40;;;3.80;99.90;;;;;;4990025;28;20076;-76
2022/04/09 01:19:13;;;;;;;7.80;1.48;;;3.80;99.90;;;;;;4995580;28;276342;-76
2022/04/09 01:21:39;;;;;;;11.32;1.60;;;3.70;99.90;;;;;;4976315;28;20526;-76
2022/04/09 01:24:06;;;;;;;11.00;1.33;;;3.60;99.90;;;;;;4977778;28;272454;-75
2022/04/09 01:26:33;;;;;;;14.25;1.90;;;3.60;99.90;;;;;;4962445;28;20548;-75
2022/04/09 01:28:59;;;;;;;11.15;2.00;;;3.60;99.90;;;;;;5001300;28;260268;-75
2022/04/09 01:31:25;;;;;;;10.93;1.88;;;3.60;99.90;;;;;;4999772;28;20037;-76
2022/04/09 01:33:51;;;;;;;11.75;1.92;;;3.60;99.90;;;;;;4988465;28;262987;-75
2022/04/09 01:36:17;;;;;;;11.32;1.85;;;3.70;99.90;;;;;;4970495;28;20041;-75
2022/04/09 01:38:44;;;;;;;13.18;2.05;;;3.70;99.90;;;;;;4997825;28;20053;-75
2022/04/09 01:41:10;;;;;;;12.73;2.03;;;3.70;99.90;;;;;;4979431;28;49599;-76
2022/04/09 01:43:38;;;;;;;13.05;1.70;;;3.80;99.90;;;;;;4997453;28;20434;-76
2022/04/09 01:46:04;;;;;;;10.43;1.92;;;3.90;99.90;;;;;;4956913;28;179088;-76
2022/04/09 01:48:30;;;;;;;10.05;1.65;;;3.90;99.90;;;;;;5011903;28;20041;-76
2022/04/09 01:50:56;;;;;;;8.73;1.55;;;3.80;99.90;;;;;;4978269;28;20049;-76
2022/04/09 01:53:22;;;;;;;9.05;2.00;;;3.80;99.90;;;;;;4991011;28;20513;-76
2022/04/09 01:55:48;;;;;;;16.15;2.42;;;3.80;99.90;;;;;;4989852;28;248704;-76
2022/04/09 01:58:14;;;;;;;11.90;1.63;;;3.80;99.90;;;;;;4974970;28;20514;-76
2022/04/09 02:00:41;;;;;;;9.38;1.65;;;3.80;99.90;;;;;;4969507;28;34583;-76
2022/04/09 02:03:07;;;;;;;11.60;2.20;;;3.80;99.90;;;;;;4999669;28;20060;-76
2022/04/09 02:05:34;;;;;;;14.43;1.90;;;3.70;99.90;;;;;;4949747;28;177917;-75
2022/04/09 02:08:01;;;;;;;13.35;2.10;;;3.70;99.90;;;;;;4993350;28;20050;-75
2022/04/09 02:10:29;;;;;;;16.98;2.40;;;3.80;99.90;;;;;;5003087;28;20041;-76
2022/04/09 02:12:56;;;;;;;13.30;2.53;;;3.80;99.90;;;;;;4999136;28;20049;-76
2022/04/09 02:15:22;;;;;;;12.10;2.00;;;3.90;99.90;;;;;;5003264;28;225102;-76
2022/04/09 02:17:48;;;;;;;17.67;2.28;;;3.90;99.90;;;;;;4968914;28;20052;-76
2022/04/09 02:20:15;;;;;;;12.85;2.03;;;3.90;99.90;;;;;;5010166;28;22158;-75
2022/04/09 02:22:44;;;;;;;16.10;2.05;;;3.80;99.90;;;;;;4965463;28;20041;-75
2022/04/09 02:25:13;;;;;;;11.60;2.00;;;3.80;99.90;;;;;;4989156;28;102098;-75
2022/04/09 02:27:39;;;;;;;14.35;2.03;;;3.80;99.90;;;;;;4982794;28;20493;-75
2022/04/09 02:30:08;;;;;;;12.52;2.13;;;3.70;99.90;;;;;;5000830;28;53004;-75
2022/04/09 02:32:46;;;;;;;14.02;2.17;;;3.70;99.90;;;;;;4977818;28;20064;-75
2022/04/09 02:35:12;;;;;;;18.33;2.10;;;3.70;99.90;;;;;;4999871;28;102702;-76
2022/04/09 02:37:38;;;;;;;14.57;2.08;;;3.60;99.90;;;;;;4976547;28;20407;-75
2022/04/09 02:40:05;;;;;;;12.30;2.33;;;3.60;99.90;;;;;;5008906;28;46110;-75
2022/04/09 02:42:31;;;;;;;12.57;2.35;;;3.50;99.90;;;;;;4969531;28;20038;-75
2022/04/09 02:44:58;;;;;;;14.38;2.05;;;3.50;99.90;;;;;;5014866;28;65786;-76
2022/04/09 02:47:24;;;;;;;12.20;1.70;;;3.40;99.90;;;;;;4992796;28;20045;-75
2022/04/09 02:49:50;;;;;;;14.15;2.08;;;3.40;99.90;;;;;;5010478;28;106825;-75
2022/04/09 02:52:16;;;;;;;12.00;1.95;;;3.40;99.90;;;;;;4979133;28;20507;-76
2022/04/09 02:54:42;;;;;;;14.40;2.05;;;3.30;99.90;;;;;;4983699;28;95074;-75
2022/04/09 02:57:08;;;;;;;15.88;2.05;;;3.30;99.90;;;;;;4958492;28;20421;-75
2022/04/09 02:59:34;;;;;;;13.35;1.80;;;3.30;99.90;;;;;;5007114;28;99993;-75
2022/04/09 03:02:00;;;;;;;12.32;1.52;;;3.30;99.90;;;;;;4981374;28;20054;-76
2022/04/09 03:04:26;;;;;;;11.63;1.85;;;3.20;99.90;;;;;;4989642;28;203244;-76
2022/04/09 03:06:52;;;;;;;14.80;2.65;;;3.20;99.90;;;;;;4966557;28;20102;-76
2022/04/09 03:09:18;;;;;;;13.55;1.80;;;3.20;99.90;;;;;;5003187;28;20056;-76
2022/04/09 03:11:44;;;;;;;11.23;1.77;;;3.10;99.90;;;;;;4967200;28;20046;-76
2022/04/09 03:14:10;;;;;;;12.93;1.83;;;3.10;99.90;;;;;;4991611;28;270998;-76
2022/04/09 03:16:36;;;;;;;12.13;1.75;;;3.10;99.90;;;;;;4971482;28;20049;-76
2022/04/09 03:19:03;;;;;;;10.13;1.90;;;3.10;99.90;;;;;;4995302;28;261936;-76
2022/04/09 03:21:30;;;;;;;13.18;1.85;;;3.00;99.90;;;;;;4975475;28;20044;-76
2022/04/09 03:23:56;;;;;;;11.20;1.50;;;3.10;99.90;;;;;;4977021;28;247710;-76
2022/04/09 03:26:22;;;;;;;15.13;1.83;;;3.10;99.90;;;;;;4963903;28;20053;-77
2022/04/09 03:28:48;;;;;;;11.27;1.95;;;3.10;99.90;;;;;;5029683;28;20056;-76
2022/04/09 03:31:14;;;;;;;12.10;1.70;;;3.10;99.90;;;;;;4964386;28;20064;-75
2022/04/09 03:33:40;;;;;;;10.52;1.60;;;3.00;99.90;;;;;;5031701;28;20053;-76
2022/04/09 03:36:06;;;;;;;12.35;1.60;;;3.10;99.90;;;;;;4963268;28;265448;-76
2022/04/09 03:38:34;;;;;;;15.23;1.85;;;3.10;99.90;;;;;;5007730;28;20053;-75
2022/04/09 03:41:00;;;;;;;13.48;1.75;;;3.10;99.90;;;;;;4962706;28;38453;-76
2022/04/09 03:43:28;;;;;;;13.98;1.80;;;3.20;99.90;;;;;;5008287;28;20050;-76
2022/04/09 03:45:54;;;;;;;13.13;2.15;;;3.30;99.90;;;;;;4969085;28;93341;-76
2022/04/09 03:48:21;;;;;;;10.07;1.80;;;3.40;99.90;;;;;;4994160;28;20045;-76
2022/04/09 03:50:47;;;;;;;12.57;2.25;;;3.50;99.90;;;;;;4940928;28;257843;-76
2022/04/09 03:53:19;;;;;;;13.98;1.92;;;3.60;99.90;;;;;;5015089;28;20061;-76
2022/04/09 03:55:48;;;;;;;16.42;2.03;;;3.70;99.90;;;;;;4970508;28;173937;-76
2022/04/09 03:58:19;;;;;;;15.48;1.90;;;3.70;99.90;;;;;;4989619;28;20494;-76
2022/04/09 04:00:45;;;;;;;13.33;1.43;;;3.70;99.90;;;;;;4978287;28;169518;-76
2022/04/09 04:03:12;;;;;;;10.63;1.35;;;3.60;99.90;;;;;;5006353;28;20050;-76
2022/04/09 04:05:38;;;;;;;12.50;1.45;;;3.60;99.90;;;;;;4965844;28;141641;-76
2022/04/09 04:08:06;;;;;;;10.40;1.23;;;3.60;99.90;;;;;;5002826;28;20057;-76
2022/04/09 04:10:37;;;;;;;12.02;1.30;;;3.60;99.90;;;;;;4960284;28;163123;-76
2022/04/09 04:13:05;;;;;;;6.80;1.08;;;3.50;99.90;;;;;;5022024;28;20054;-76
2022/04/09 04:15:32;;;;;;;9.77;1.27;;;3.50;99.90;;;;;;4998118;28;139274;-76
2022/04/09 04:17:58;;;;;;;8.05;1.30;;;3.50;99.90;;;;;;4962399;28;20073;-76
2022/04/09 04:20:24;;;;;;;9.88;1.35;;;3.50;99.90;;;;;;5011470;28;147997;-76
2022/04/09 04:22:54;;;;;;;11.43;1.75;;;3.50;99.90;;;;;;4970105;28;20037;-76
2022/04/09 04:25:21;;;;;;;11.07;1.30;;;3.50;99.90;;;;;;5002516;28;108865;-76
2022/04/09 04:27:51;;;;;;;13.00;1.65;;;3.40;99.90;;;;;;4953094;28;20437;-76
2022/04/09 04:30:18;;;;;;;10.55;1.80;;;3.40;99.90;;;;;;5004714;28;182667;-76
2022/04/09 04:32:45;;;;;;;11.73;1.63;;;3.40;99.90;;;;;;4966328;28;20046;-77
2022/04/09 04:35:11;;;;;;;13.70;1.70;;;3.50;99.90;;;;;;4998880;28;248839;-77
2022/04/09 04:37:42;;;;;;;9.23;1.77;;;3.60;99.90;;;;;;4967925;28;20407;-76
2022/04/09 04:40:09;;;;;;;10.23;1.45;;;3.60;99.90;;;;;;5005706;28;244410;-77
2022/04/09 04:42:35;;;;;;;13.07;1.92;;;3.60;99.90;;;;;;4986858;28;20072;-76
2022/04/09 04:45:03;;;;;;;12.55;1.52;;;3.60;99.90;;;;;;5005402;28;233495;-77
2022/04/09 04:47:29;;;;;;;12.25;1.75;;;3.60;99.90;;;;;;4976777;28;20074;-76
2022/04/09 04:49:56;;;;;;;11.52;1.60;;;3.60;99.90;;;;;;5002534;28;57587;-77
2022/04/09 04:52:22;;;;;;;12.07;1.60;;;3.60;99.90;;;;;;4964868;28;20049;-76
2022/04/09 04:54:48;;;;;;;11.98;1.83;;;3.70;99.90;;;;;;4984563;28;239808;-77
2022/04/09 04:57:14;;;;;;;13.18;1.90;;;3.80;99.90;;;;;;4992294;28;20045;-77
2022/04/09 04:59:40;;;;;;;15.65;1.70;;;3.80;99.90;;;;;;4989533;28;100501;-77
2022/04/09 05:02:06;;;;;;;12.32;1.70;;;3.80;99.90;;;;;;4982164;28;20102;-77
2022/04/09 05:04:32;;;;;;;15.30;1.88;;;3.80;99.90;;;;;;4984642;28;241065;-77
2022/04/09 05:06:58;;;;;;;15.52;1.70;;;3.70;99.90;;;;;;4966146;28;20060;-77
2022/04/09 05:09:25;;;;;;;15.43;2.00;;;3.60;99.90;;;;;;4986745;28;22683;-77
2022/04/09 05:11:51;;;;;;;10.95;1.80;;;3.60;99.90;;;;;;4975265;28;20045;-77
2022/04/09 05:14:17;;;;;;;11.93;1.65;;;3.60;99.90;;;;;;4996979;28;138722;-77
2022/04/09 05:16:43;;;;;;;16.10;2.13;;;3.60;99.90;;;;;;4969334;28;20052;-77
2022/04/09 05:19:09;;;;;;;15.70;1.80;;;3.60;99.90;;;;;;4987399;28;244891;-77
2022/04/09 05:21:35;;;;;;;10.35;1.77;;;3.60;99.90;;;;;;4967014;28;20535;-77
2022/04/09 05:24:01;;;;;;;16.45;2.13;;;3.50;99.90;;;;;;4987216;28;264099;-77
2022/04/09 05:26:27;;;;;;;19.33;2.03;;;3.50;99.90;;;;;;4975348;28;20046;-77
2022/04/09 05:28:54;;;;;;;17.15;2.10;;;3.50;99.90;;;;;;4985656;28;258981;-77
2022/04/09 05:31:27;;;;;;;12.07;1.80;;;3.60;99.90;;;;;;4966113;28;20052;-77
2022/04/09 05:33:56;;;;;;;16.05;2.13;;;3.60;99.90;;;;;;4983223;28;267703;-77
2022/04/09 05:36:22;;;;;;;14.07;2.28;;;3.60;99.90;;;;;;4976425;28;20056;-77
2022/04/09 05:38:49;;;;;;;11.77;1.95;;;3.60;99.90;;;;;;4994889;28;20498;-77
2022/04/09 05:41:15;;;;;;;19.33;2.22;;;3.70;99.90;;;;;;4964448;28;20037;-77
2022/04/09 05:43:41;;;;;;;18.80;2.28;;;3.70;99.90;;;;;;5014227;28;20411;-77
2022/04/09 05:46:08;;;;;;;19.52;2.88;;;3.80;99.90;;;;;;4974930;28;132038;-77
2022/04/09 05:48:34;;;;;;;18.98;2.30;;;3.90;99.90;;;;;;5004478;28;20050;-77
2022/04/09 05:51:00;;;;;;;17.83;3.50;;;4.00;99.90;;;;;;4991265;28;20048;-76
2022/04/09 05:53:26;;;;;;;14.00;3.78;;;4.10;99.90;;;;;;5000801;28;20504;-77
2022/04/09 05:55:52;;;;;;;15.57;4.10;;;4.20;99.90;;;;;;4987259;28;259640;-77
2022/04/09 05:58:18;;;;;;;13.27;3.58;;;4.40;99.90;;;;;;5013303;28;20072;-76
2022/04/09 06:00:45;;;;;;;13.77;3.00;;;4.60;99.90;;;;;;4969684;28;115739;-77
2022/04/09 06:03:11;;;;;;;13.82;2.47;;;4.60;99.90;;;;;;5007455;28;20061;-77
2022/04/09 06:05:37;;;;;;;14.98;2.10;;;4.70;99.90;;;;;;4941043;28;147735;-76
2022/04/09 06:08:03;;;;;;;16.80;2.22;;;4.70;99.90;;;;;;5002808;28;20065;-76
2022/04/09 06:10:30;;;;;;;15.85;2.13;;;4.70;99.90;;;;;;4985714;28;156454;-76
2022/04/09 06:12:56;;;;;;;13.07;1.70;;;4.70;99.90;;;;;;4967852;28;20248;-77
2022/04/09 06:15:22;;;;;;;15.73;2.20;;;4.70;99.90;;;;;;4986958;28;114686;-75
2022/04/09 06:17:48;;;;;;;18.55;2.40;;;4.70;99.90;;;;;;4949755;28;20068;-75
2022/04/09 06:20:16;;;;;;;13.52;1.77;;;4.70;99.90;;;;;;4990400;28;249492;-75
2022/04/09 06:22:42;;;;;;;11.45;2.00;;;4.70;99.90;;;;;;4968272;28;20167;-76
2022/04/09 06:25:09;;;;;;;12.35;1.98;;;4.90;99.90;;;;;;5001856;28;37095;-76
2022/04/09 06:27:39;;;;;;;12.40;2.05;;;5.30;99.90;;;;;;4971694;28;20406;-76
2022/04/09 06:30:06;;;;;;;12.02;1.88;;;5.40;99.90;;;;;;5025364;28;44771;-76
2022/04/09 06:32:32;;;;;;;12.95;1.65;;;5.80;99.90;;;;;;4952280;28;20048;-75
2022/04/09 06:34:58;;;;;;;17.33;2.13;;;6.20;99.90;;;;;;5017856;28;79404;-74
2022/04/09 06:37:24;;;;;;;13.23;1.85;;;6.70;99.90;;;;;;4993139;28;20041;-75
2022/04/09 06:39:50;;;;;;;14.27;2.45;;;7.00;99.90;;;;;;4999604;28;82915;-75
2022/04/09 06:42:17;;;;;;;14.02;2.08;;;7.30;99.90;;;;;;4961627;28;20046;-74
2022/04/09 06:44:43;;;;;;;16.48;1.83;;;7.40;99.90;;;;;;4999356;28;277105;-75
2022/04/09 06:47:09;;;;;;;18.13;2.60;;;7.20;99.90;;;;;;4969592;28;20440;-76
2022/04/09 06:49:38;;;;;;;16.75;2.40;;;6.90;99.90;;;;;;4998942;28;169221;-76
2022/04/09 06:52:05;;;;;;;16.27;2.00;;;6.40;99.90;;;;;;4974012;28;20398;-76
2022/04/09 06:54:32;;;;;;;16.63;2.45;;;6.00;99.90;;;;;;5010005;28;57329;-77
2022/04/09 06:56:58;;;;;;;17.25;2.30;;;5.80;99.90;;;;;;4972600;28;20053;-76
2022/04/09 06:59:24;;;;;;;13.32;2.15;;;5.70;99.90;;;;;;5007161;28;34055;-77
2022/04/09 07:01:50;;;;;;;16.52;2.05;;;5.70;99.90;;;;;;4967269;28;20046;-76
2022/04/09 07:04:16;;;;;;;14.60;2.08;;;6.10;99.90;;;;;;4973463;28;185929;-76
2022/04/09 07:06:46;;;;;;;13.27;2.10;;;6.70;99.90;;;;;;4986039;28;20033;-76
2022/04/09 07:09:13;;;;;;;18.20;2.25;;;7.10;99.90;;;;;;4982891;28;252821;-75
2022/04/09 07:11:39;;;;;;;17.33;2.05;;;7.20;99.90;;;;;;4969199;28;20068;-76
2022/04/09 07:14:05;;;;;;;13.43;1.80;;;7.50;99.90;;;;;;4996269;28;273883;-76
2022/04/09 07:16:31;;;;;;;11.93;1.77;;;7.70;99.90;;;;;;4988840;28;20052;-76
2022/04/09 07:18:57;;;;;;;16.33;2.13;;;8.00;99.90;;;;;;4997680;28;263967;-76
2022/04/09 07:21:24;;;;;;;12.25;2.15;;;7.80;99.90;;;;;;4966301;28;20061;-76
2022/04/09 07:23:50;;;;;;;15.70;2.33;;;8.00;99.90;;;;;;5000002;28;243313;-77
2022/04/09 07:26:16;;;;;;;14.88;2.20;;;7.80;99.90;;;;;;4975702;28;20045;-77
2022/04/09 07:28:43;;;;;;;13.93;2.00;;;7.90;99.90;;;;;;5017200;28;20442;-76
2022/04/09 07:31:09;;;;;;;12.93;1.70;;;7.80;99.90;;;;;;4963632;28;229762;-77
2022/04/09 07:33:35;;;;;;;12.18;1.70;;;8.20;99.90;;;;;;5009527;28;20693;-77
2022/04/09 07:36:01;;;;;;;13.15;1.92;;;8.50;99.90;;;;;;4981144;28;43406;-77
2022/04/09 07:38:27;;;;;;;12.45;1.90;;;8.40;99.90;;;;;;5008930;28;20056;-76
2022/04/09 07:40:54;;;;;;;12.05;2.13;;;8.60;99.90;;;;;;4980206;28;72568;-77
2022/04/09 07:43:20;;;;;;;14.48;1.92;;;8.70;99.90;;;;;;5002198;28;20076;-76
2022/04/09 07:45:46;;;;;;;10.07;1.65;;;8.60;99.90;;;;;;4964161;28;60496;-77
2022/04/09 07:48:13;;;;;;;10.57;1.42;;;8.40;99.90;;;;;;4966144;28;20045;-77
2022/04/09 07:50:39;;;;;;;10.90;1.73;;;8.30;99.90;;;;;;4945637;28;156854;-77
2022/04/09 07:53:08;;;;;;;10.27;1.60;;;8.20;99.90;;;;;;5009450;28;20144;-76
2022/04/09 07:55:34;;;;;;;12.48;1.67;;;8.40;99.90;;;;;;4979119;28;205140;-76
2022/04/09 07:58:01;;;;;;;10.63;1.65;;;8.40;99.90;;;;;;4995581;28;20056;-76
2022/04/09 08:00:27;;;;;;;12.23;1.90;;;7.90;99.90;;;;;;4969943;28;210100;-75
2022/04/09 08:02:55;;;;;;;15.07;2.20;;;8.30;99.90;;;;;;4976298;28;20064;-77
2022/04/09 08:05:21;;;;;;;12.45;1.80;;;8.20;99.90;;;;;;4992519;28;149917;-78
2022/04/09 08:07:50;;;;;;;13.55;1.65;;;8.30;99.90;;;;;;4984763;28;20038;-77
2022/04/09 08:10:16;;;;;;;14.63;2.00;;;8.60;99.90;;;;;;5012822;28;140734;-76
2022/04/09 08:12:42;;;;;;;13.32;1.70;;;8.80;99.90;;;;;;4965312;28;20403;-76
2022/04/09 08:15:09;;;;;;;15.30;1.63;;;8.60;99.90;;;;;;4993185;28;241348;-76
2022/04/09 08:17:39;;;;;;;14.13;1.67;;;8.50;99.90;;;;;;4972887;28;20068;-76
2022/04/09 08:20:06;;;;;;;13.73;2.22;;;8.50;99.90;;;;;;5017209;28;35402;-76
2022/04/09 08:22:33;;;;;;;14.77;2.05;;;8.90;99.90;;;;;;4992822;28;20053;-76
2022/04/09 08:25:01;;;;;;;12.35;1.80;;;9.10;99.90;;;;;;5018999;22;86622;-73
2022/04/09 08:27:28;;;;;;;16.58;1.95;;;9.00;99.90;;;;;;4961959;28;20041;-74
2022/04/09 08:29:54;;;;;;;14.23;1.92;;;9.00;99.90;;;;;;5002132;28;50039;-73
2022/04/09 08:32:22;;;;;;;13.23;1.92;;;8.70;99.90;;;;;;4981519;28;20046;-73
2022/04/09 08:34:49;;;;;;;11.38;1.80;;;9.00;99.90;;;;;;5000956;28;26256;-73
2022/04/09 08:37:16;;;;;;;12.23;1.88;;;9.50;99.90;;;;;;4953763;28;20062;-73
2022/04/09 08:39:42;;;;;;;10.88;1.45;;;9.70;99.90;;;;;;4976716;28;105259;-73
2022/04/09 08:42:09;;;;;;;14.02;2.00;;;9.50;99.90;;;;;;4980047;28;20474;-73
2022/04/09 08:44:35;;;;;;;14.55;1.90;;;8.90;99.90;;;;;;4976663;28;80073;-73
2022/04/09 08:47:02;;;;;;;12.18;1.75;;;8.90;99.90;;;;;;4977319;28;20038;-73
2022/04/09 08:49:32;;;;;;;12.15;1.60;;;8.90;99.90;;;;;;4993656;28;239765;-73
2022/04/09 08:51:58;;;;;;;10.57;1.70;;;8.70;99.90;;;;;;4978217;28;20596;-73
2022/04/09 08:54:25;;;;;;;13.93;1.95;;;8.30;99.90;;;;;;4991848;28;40838;-73
2022/04/09 08:56:51;;;;;;;15.02;1.90;;;8.80;99.90;;;;;;4971930;28;20041;-73
2022/04/09 08:59:17;;;;;;;13.75;1.80;;;9.40;99.90;;;;;;4992189;28;137825;-73
2022/04/09 09:01:43;;;;;;;12.93;2.25;;;9.70;99.90;;;;;;4973994;28;20060;-73
2022/04/09 09:04:10;;;;;;;12.07;1.83;;;10.10;99.90;;;;;;4965431;28;257253;-73
2022/04/09 09:06:44;;;;;;;12.70;2.10;;;10.30;99.90;;;;;;4958490;28;20545;-73
2022/04/09 09:09:29;;;;;;;13.25;1.85;;;10.80;99.90;;;;;;4964057;28;277938;-74
2022/04/09 09:11:57;;;;;;;12.20;1.80;;;10.10;99.90;;;;;;4951497;28;20042;-73
2022/04/09 09:14:32;;;;;;;12.40;1.90;;;9.80;99.90;;;;;;4983938;28;83149;-73
2022/04/09 09:16:59;;;;;;;12.25;1.80;;;9.60;99.90;;;;;;4972857;28;20057;-73
2022/04/09 09:19:47;;;;;;;9.45;1.40;;;9.00;99.90;;;;;;4985920;28;284659;-73
2022/04/09 09:22:14;;;;;;;11.18;1.58;;;8.60;99.90;;;;;;4971493;28;20056;-73
2022/04/09 09:24:40;;;;;;;10.10;1.60;;;8.30;99.90;;;;;;4991251;28;21663;-74
2022/04/09 09:27:07;;;;;;;10.27;1.60;;;8.80;99.90;;;;;;4977256;28;20046;-73
2022/04/09 09:29:35;;;;;;;16.25;2.58;;;9.40;99.90;;;;;;4988007;28;254659;-73
2022/04/09 09:32:04;;;;;;;15.80;1.98;;;9.70;99.90;;;;;;4959010;28;20515;-73
2022/04/09 09:34:31;;;;;;;12.18;1.77;;;10.30;99.90;;;;;;4984474;28;264916;-73
2022/04/09 09:36:57;;;;;;;13.23;1.83;;;10.10;99.90;;;;;;4967233;28;20042;-74
2022/04/09 09:39:25;;;;;;;14.73;2.30;;;9.50;99.90;;;;;;4985550;28;268787;-73
2022/04/09 09:41:55;;;;;;;16.77;2.22;;;9.30;99.90;;;;;;4975025;28;20052;-73
2022/04/09 09:44:26;;;;;;;16.05;2.20;;;9.10;99.90;;;;;;4988611;28;150028;-73
2022/04/09 09:46:54;;;;;;;16.15;2.00;;;9.70;99.90;;;;;;4969103;28;20629;-73
2022/04/09 09:49:23;;;;;;;13.02;2.00;;;10.10;99.90;;;;;;4985322;28;99180;-73
2022/04/09 09:52:05;;;;;;;13.13;1.80;;;10.30;99.90;;;;;;4971880;28;20045;-73
2022/04/09 09:54:31;;;;;;;10.15;1.50;;;9.80;99.70;;;;;;4989970;28;218200;-73
2022/04/09 09:56:59;;;;;;;9.40;1.88;;;8.70;99.90;;;;;;4969488;28;20039;-73
2022/04/09 09:59:27;;;;;;;15.13;2.30;;;8.10;99.90;;;;;;4984680;28;193453;-73
2022/04/09 10:01:56;;;;;;;13.02;1.90;;;7.90;99.90;;;;;;4967257;28;20042;-73
2022/04/09 10:04:23;;;;;;;14.13;1.80;;;7.80;99.90;;;;;;4976988;28;266150;-73
2022/04/09 10:06:50;;;;;;;13.70;2.20;;;8.70;99.90;;;;;;4955216;28;20061;-74
2022/04/09 10:09:18;;;;;;;14.43;2.10;;;9.20;99.90;;;;;;4966301;28;206305;-73
2022/04/09 10:11:54;;;;;;;15.68;2.17;;;9.60;99.90;;;;;;4937508;28;20043;-73
2022/04/09 10:14:23;;;;;;;12.45;1.90;;;9.30;99.90;;;;;;4953149;28;67589;-75
2022/04/09 10:16:53;;;;;;;10.40;1.77;;;8.90;99.90;;;;;;4962329;28;20042;-74
2022/04/09 10:19:22;;;;;;;9.20;1.48;;;9.40;99.90;;;;;;4985715;28;82893;-74
2022/04/09 10:21:51;;;;;;;10.38;1.60;;;10.20;99.90;;;;;;4978537;28;20045;-73
2022/04/09 10:24:22;;;;;;;10.38;1.48;;;10.40;99.90;;;;;;4985477;28;258054;-75
2022/04/09 10:26:49;;;;;;;9.20;1.60;;;10.50;99.90;;;;;;4962744;28;20046;-73
2022/04/09 10:29:15;;;;;;;7.90;1.17;;;10.30;99.90;;;;;;4986289;28;43708;-75
2022/04/09 10:31:43;;;;;;;6.97;1.17;;;10.60;99.90;;;;;;4960587;28;20037;-73
2022/04/09 10:34:16;;;;;;;8.82;1.38;;;10.80;99.70;;;;;;4995493;28;257232;-74
2022/04/09 10:36:45;;;;;;;8.35;1.20;;;10.80;99.40;;;;;;4989885;28;20042;-74
2022/04/09 10:39:25;;;;;;;13.07;1.30;;;10.00;99.30;;;;;;4970160;28;255242;-73
2022/04/09 10:41:55;;;;;;;8.85;1.40;;;9.60;99.90;;;;;;4936983;28;20479;-73
2022/04/09 10:44:36;;;;;;;9.02;1.30;;;9.10;99.90;;;;;;4985062;28;273583;-73
2022/04/09 10:47:03;;;;;;;8.95;1.48;;;9.00;99.90;;;;;;4962224;28;20046;-73
2022/04/09 10:49:30;;;;;;;9.27;1.20;;;8.80;99.90;;;;;;4985488;28;23543;-74
2022/04/09 10:52:11;;;;;;;9.10;1.17;;;8.50;99.90;;;;;;4953959;28;20046;-73
2022/04/09 10:54:41;;;;;;;9.18;1.30;;;8.30;99.90;;;;;;4982074;28;98655;-73
2022/04/09 10:57:21;;;;;;;9.35;1.40;;;8.10;99.90;;;;;;4951451;28;20048;-74
2022/04/09 11:00:00;;;;;;;8.77;1.30;;;7.90;99.90;;;;;;4943676;28;205405;-73
2022/04/09 11:02:29;;;;;;;8.80;1.27;;;8.20;99.90;;;;;;4962697;28;20046;-73
2022/04/09 11:05:15;;;;;;;8.77;1.25;;;8.80;99.90;;;;;;4965387;28;110243;-73
2022/04/09 11:08:08;;;;;;;9.40;1.40;;;9.50;99.90;;;;;;4950685;28;20889;-73
2022/04/09 11:10:35;;;;;;;11.30;1.35;;;10.40;99.90;;;;;;4861420;29;199196;-74
2022/04/09 11:13:02;;;;;;;7.40;1.45;;;11.30;99.90;;;;;;4926162;29;20413;-76
2022/04/09 11:15:28;;;;;;;8.40;1.20;;;11.90;99.10;;;;;;4896430;29;146334;-70
2022/04/09 11:18:01;;;;;;;8.18;1.30;;;12.40;98.50;;;;;;4945209;28;20353;-74
2022/04/09 11:20:32;;;;;;;7.35;1.13;;;12.90;97.20;;;;;;4903427;28;237518;-73
2022/04/09 11:23:08;;;;;;;10.82;1.48;;;12.80;98.00;;;;;;4901062;29;20047;-73
2022/04/09 11:25:34;;;;;;;7.88;1.20;;;11.70;96.20;;;;;;4877429;29;133633;-72
2022/04/09 11:28:16;;;;;;;11.30;1.60;;;11.00;96.40;;;;;;4942881;28;20047;-72
2022/04/09 11:30:58;;;;;;;11.95;1.80;;;10.60;98.50;;;;;;4879444;28;128858;-73
2022/04/09 11:33:24;;;;;;;9.73;1.52;;;10.30;99.90;;;;;;4916232;29;20055;-73
2022/04/09 11:35:51;;;;;;;11.98;1.70;;;9.90;99.90;;;;;;4903912;28;97535;-73
2022/04/09 11:38:17;;;;;;;9.23;1.42;;;10.30;99.90;;;;;;4943885;28;20055;-74
2022/04/09 11:40:46;;;;;;;9.85;1.60;;;10.30;99.90;;;;;;4883429;28;92838;-74
2022/04/09 11:43:14;;;;;;;10.85;1.90;;;10.50;99.90;;;;;;4929178;29;20086;-73
2022/04/09 11:45:41;;;;;;;9.43;1.65;;;11.20;99.90;;;;;;4883898;28;182213;-73
2022/04/09 11:48:14;;;;;;;13.15;1.60;;;11.70;99.10;;;;;;4971094;28;20037;-74
2022/04/09 11:50:40;;;;;;;6.70;1.13;;;11.50;99.10;;;;;;4945535;28;94612;-74
2022/04/09 11:53:21;;;;;;;11.05;1.35;;;11.00;95.40;;;;;;4985285;28;20042;-74
2022/04/09 11:55:48;;;;;;;7.88;1.30;;;10.30;95.50;;;;;;4941651;28;176780;-74
2022/04/09 11:58:16;;;;;;;7.22;1.13;;;10.10;98.50;;;;;;4995871;28;20085;-76
2022/04/09 12:00:45;;;;;;;7.88;1.10;;;10.00;95.60;;;;;;4955807;28;289800;-72
2022/04/09 12:03:11;;;;;;;9.65;1.20;;;9.80;95.80;;;;;;4997601;28;20052;-72
2022/04/09 12:05:47;;;;;;;7.88;1.30;;;10.10;96.00;;;;;;4913228;28;240229;-73
2022/04/09 12:08:24;;;;;;;10.18;1.35;;;11.00;95.80;;;;;;4977455;28;20046;-73
2022/04/09 12:10:53;;;;;;;6.97;1.00;;;11.80;94.10;;;;;;4949731;28;269754;-72
2022/04/09 12:13:39;;;;;;;7.50;1.35;;;11.70;91.90;;;;;;4988011;28;20416;-72
2022/04/09 12:16:13;;;;;;;9.20;1.83;;;10.70;92.10;;;;;;4943456;28;86917;-74
2022/04/09 12:18:40;;;;;;;10.15;1.17;;;9.70;97.10;;;;;;5001685;28;20129;-74
2022/04/09 12:21:22;;;;;;;6.22;1.08;;;9.10;99.40;;;;;;4965457;28;22605;-74
2022/04/09 12:24:12;;;;;;;7.93;1.20;;;8.90;98.80;;;;;;5000930;28;20034;-74
2022/04/09 12:26:43;;;;;;;5.50;0.75;;;9.60;98.70;;;;;;4945006;28;20527;-75
2022/04/09 12:29:19;;;;;;;10.05;1.10;;;10.00;98.00;;;;;;4966742;28;256436;-72
2022/04/09 12:31:48;;;;;;;6.38;1.02;;;10.20;95.40;;;;;;4951217;28;20072;-73
2022/04/09 12:34:15;;;;;;;6.10;0.82;;;10.50;96.00;;;;;;4983254;28;20072;-72
2022/04/09 12:37:01;;;;;;;6.80;0.90;;;10.80;92.80;;;;;;4972425;28;20045;-72
2022/04/09 12:39:28;;;;;;;6.85;1.00;;;10.70;93.60;;;;;;4994924;28;268348;-73
2022/04/09 12:41:55;;;;;;;5.20;0.80;;;10.50;91.20;;;;;;4939179;28;20148;-73
2022/04/09 12:44:29;;;;;;;6.35;1.00;;;10.70;92.80;;;;;;4976553;28;272182;-73
2022/04/09 12:46:56;;;;;;;7.75;0.90;;;10.60;90.60;;;;;;4956063;28;20046;-74